createdAt,value
2019-05-17T00:00:00.102Z,99863
2019-05-17T00:05:00.104Z,99861
2019-05-17T00:10:00.103Z,99855
2019-05-17T00:15:00.109Z,99863
2019-05-17T00:20:00.106Z,99852
2019-05-17T00:25:00.124Z,99848
2019-05-17T00:30:00.103Z,99837
2019-05-17T00:35:00.131Z,99839
2019-05-17T00:40:00.106Z,99841
2019-05-17T00:45:00.111Z,99839
2019-05-17T00:50:00.098Z,99834
2019-05-17T00:55:00.102Z,99827
2019-05-17T01:00:00.130Z,99806
2019-05-17T01:05:00.104Z,99804
2019-05-17T01:10:00.108Z,99811
2019-05-17T01:15:00.124Z,99804
2019-05-17T01:20:00.126Z,99800
2019-05-17T01:25:00.124Z,99796
2019-05-17T01:30:00.101Z,99802
2019-05-17T01:35:00.116Z,99797
2019-05-17T01:40:00.113Z,99794
2019-05-17T01:45:00.119Z,99807
2019-05-17T01:50:00.071Z,99786
2019-05-17T01:55:00.081Z,99777
2019-05-17T02:00:00.107Z,99778
2019-05-17T02:05:00.078Z,99770
2019-05-17T02:10:00.117Z,99760
2019-05-17T02:15:00.126Z,99762
2019-05-17T02:20:00.088Z,99749
2019-05-17T02:25:00.126Z,99746
2019-05-17T02:30:02.425Z,99733
2019-05-17T02:35:03.093Z,99741
2019-05-17T02:40:04.338Z,99740
2019-05-17T02:45:02.965Z,99736
2019-05-17T02:50:00.121Z,99739
2019-05-17T02:55:03.577Z,99739
2019-05-17T03:00:03.975Z,99743
2019-05-17T03:05:03.535Z,99731
2019-05-17T03:10:13.432Z,99727
2019-05-17T03:15:03.740Z,99729
2019-05-17T03:20:03.549Z,99732
2019-05-17T03:25:03.121Z,99720
2019-05-17T03:30:03.997Z,99715
2019-05-17T03:35:05.997Z,99721
2019-05-17T03:40:02.916Z,99723
2019-05-17T03:45:02.826Z,99718
2019-05-17T03:50:03.008Z,99714
2019-05-17T03:55:03.523Z,99721
2019-05-17T04:00:03.484Z,99733
2019-05-17T04:05:03.914Z,99728
2019-05-17T04:10:04.111Z,99732
2019-05-17T04:15:03.106Z,99732
2019-05-17T04:20:03.233Z,99730
2019-05-17T04:25:02.936Z,99729
2019-05-17T04:30:03.292Z,99733
2019-05-17T04:35:03.291Z,99729
2019-05-17T04:40:03.097Z,99727
2019-05-17T04:45:03.309Z,99726
2019-05-17T04:50:03.547Z,99728
2019-05-17T04:55:03.645Z,99724
2019-05-17T05:00:03.811Z,99735
2019-05-17T05:05:03.169Z,99726
2019-05-17T05:10:02.896Z,99726
2019-05-17T05:15:03.194Z,99724
2019-05-17T05:20:02.713Z,99727
2019-05-17T05:25:02.094Z,99715
2019-05-17T05:30:00.147Z,99711
2019-05-17T05:35:02.863Z,99713
2019-05-17T05:40:01.977Z,99713
2019-05-17T05:45:00.161Z,99711
2019-05-17T05:50:01.631Z,99705
2019-05-17T05:55:01.466Z,99705
2019-05-17T06:00:02.174Z,99689
2019-05-17T06:05:01.890Z,99708
2019-05-17T06:10:02.165Z,99703
2019-05-17T06:15:02.552Z,99705
2019-05-17T06:20:02.370Z,99692
2019-05-17T06:25:03.438Z,99700
2019-05-17T06:30:01.447Z,99692
2019-05-17T06:35:01.811Z,99696
2019-05-17T06:40:02.347Z,99682
2019-05-17T06:45:02.101Z,99696
2019-05-17T06:50:02.514Z,99692
2019-05-17T06:55:03.420Z,99691
2019-05-17T07:00:02.410Z,99687
2019-05-17T07:05:01.372Z,99685
2019-05-17T07:10:00.635Z,99670
2019-05-17T07:15:01.496Z,99682
2019-05-17T07:20:00.118Z,99674
2019-05-17T07:25:00.106Z,99676
2019-05-17T07:30:00.121Z,99692
2019-05-17T07:35:00.231Z,99668
2019-05-17T07:40:04.621Z,99683
2019-05-17T07:45:00.594Z,99670
2019-05-17T07:50:00.911Z,99659
2019-05-17T07:55:02.229Z,99688
2019-05-17T08:00:00.181Z,99689
2019-05-17T08:05:00.561Z,99669
2019-05-17T08:10:00.398Z,99655
2019-05-17T08:15:00.168Z,99648
2019-05-17T08:20:00.699Z,99651
2019-05-17T08:25:00.297Z,99653
2019-05-17T08:30:00.108Z,99649
2019-05-17T08:35:00.415Z,99641
2019-05-17T08:40:00.329Z,99636
2019-05-17T08:45:00.399Z,99623
2019-05-17T08:50:00.554Z,99624
2019-05-17T08:55:00.455Z,99622
2019-05-17T09:00:00.713Z,99628
2019-05-17T09:05:00.545Z,99633
2019-05-17T09:10:01.672Z,99627
2019-05-17T09:15:00.523Z,99620
2019-05-17T09:20:00.609Z,99616
2019-05-17T09:25:00.092Z,99609
2019-05-17T09:30:00.236Z,99603
2019-05-17T09:35:00.433Z,99600
2019-05-17T09:40:00.133Z,99593
2019-05-17T09:45:00.425Z,99583
2019-05-17T09:50:00.568Z,99577
2019-05-17T09:55:00.570Z,99581
2019-05-17T10:00:00.364Z,99580
2019-05-17T10:05:00.119Z,99579
2019-05-17T10:10:00.107Z,99577
2019-05-17T10:15:00.549Z,99557
2019-05-17T10:20:00.152Z,99547
2019-05-17T10:25:00.369Z,99560
2019-05-17T10:30:00.180Z,99563
2019-05-17T10:35:00.467Z,99573
2019-05-17T10:40:00.124Z,99570
2019-05-17T10:45:00.141Z,99551
2019-05-17T10:50:00.084Z,99556
2019-05-17T10:55:00.122Z,99547
2019-05-17T11:00:00.107Z,99554
2019-05-17T11:05:00.859Z,99546
2019-05-17T11:10:00.583Z,99536
2019-05-17T11:15:10.077Z,99539
2019-05-17T11:20:00.116Z,99530
2019-05-17T11:25:00.099Z,99534
2019-05-17T11:30:00.114Z,99533
2019-05-17T11:35:00.078Z,99538
2019-05-17T11:40:00.116Z,99550
2019-05-17T11:45:00.079Z,99557
2019-05-17T11:50:00.103Z,99544
2019-05-17T11:55:00.081Z,99546
2019-05-17T12:00:00.103Z,99540
2019-05-17T12:05:00.109Z,99533
2019-05-17T12:10:00.090Z,99538
2019-05-17T12:15:00.102Z,99525
2019-05-17T12:20:00.092Z,99516
2019-05-17T12:25:00.122Z,99529
2019-05-17T12:30:00.121Z,99516
2019-05-17T12:35:00.100Z,99507
2019-05-17T12:40:00.116Z,99505
2019-05-17T12:45:00.115Z,99494
2019-05-17T12:50:00.079Z,99497
2019-05-17T12:55:00.124Z,99494
2019-05-17T13:00:00.116Z,99491
2019-05-17T13:05:00.122Z,99497
2019-05-17T13:10:00.091Z,99496
2019-05-17T13:15:00.124Z,99498
2019-05-17T13:20:00.116Z,99496
2019-05-17T13:25:00.118Z,99490
2019-05-17T13:30:00.089Z,99489
2019-05-17T13:35:00.118Z,99479
2019-05-17T13:40:00.125Z,99475
2019-05-17T13:45:00.106Z,99464
2019-05-17T13:50:00.120Z,99468
2019-05-17T13:55:00.113Z,99472
2019-05-17T14:00:00.161Z,99469
2019-05-17T14:05:00.119Z,99460
2019-05-17T14:10:00.104Z,99456
2019-05-17T14:15:00.133Z,99453
2019-05-17T14:20:00.154Z,99450
2019-05-17T14:25:00.118Z,99448
2019-05-17T14:30:00.112Z,99451
2019-05-17T14:35:00.103Z,99445
2019-05-17T14:40:00.107Z,99443
2019-05-17T14:45:00.115Z,99425
2019-05-17T14:50:00.093Z,99437
2019-05-17T14:55:00.128Z,99435
2019-05-17T15:00:00.126Z,99430
2019-05-17T15:05:00.085Z,99424
2019-05-17T15:10:00.113Z,99414
2019-05-17T15:15:00.102Z,99423
2019-05-17T15:20:00.111Z,99414
2019-05-17T15:25:00.072Z,99417
2019-05-17T15:30:00.113Z,99414
2019-05-17T15:35:00.131Z,99426
2019-05-17T15:40:00.079Z,99405
2019-05-17T15:45:00.111Z,99398
2019-05-17T15:50:00.073Z,99391
2019-05-17T15:55:00.116Z,99409
2019-05-17T16:00:00.072Z,99408
2019-05-17T16:05:00.126Z,99393
2019-05-17T16:10:00.112Z,99393
2019-05-17T16:15:00.084Z,99390
2019-05-17T16:20:00.106Z,99394
2019-05-17T16:25:00.083Z,99391
2019-05-17T16:30:00.115Z,99379
2019-05-17T16:35:00.106Z,99380
2019-05-17T16:40:00.110Z,99383
2019-05-17T16:45:00.117Z,99375
2019-05-17T16:50:00.075Z,99372
2019-05-17T16:55:00.104Z,99365
2019-05-17T17:00:00.071Z,99356
2019-05-17T17:05:00.085Z,99362
2019-05-17T17:10:00.110Z,99372
2019-05-17T17:15:00.106Z,99359
2019-05-17T17:20:00.105Z,99365
2019-05-17T17:25:00.115Z,99363
2019-05-17T17:30:00.114Z,99364
2019-05-17T17:35:00.112Z,99362
2019-05-17T17:40:00.129Z,99364
2019-05-17T17:45:00.080Z,99365
2019-05-17T17:50:00.114Z,99354
2019-05-17T17:55:00.121Z,99359
2019-05-17T18:00:00.116Z,99360
2019-05-17T18:05:00.129Z,99355
2019-05-17T18:10:00.105Z,99353
2019-05-17T18:15:02.805Z,99362
2019-05-17T18:20:00.116Z,99368
2019-05-17T18:25:00.106Z,99373
2019-05-17T18:30:00.120Z,99365
2019-05-17T18:35:00.085Z,99375
2019-05-17T18:40:00.110Z,99371
2019-05-17T18:45:00.067Z,99374
2019-05-17T18:50:00.100Z,99377
2019-05-17T18:55:00.124Z,99384
2019-05-17T19:00:00.105Z,99380
2019-05-17T19:05:00.114Z,99384
2019-05-17T19:10:00.170Z,99388
2019-05-17T19:15:00.780Z,99401
2019-05-17T19:20:00.120Z,99390
2019-05-17T19:25:00.118Z,99399
2019-05-17T19:30:00.114Z,99394
2019-05-17T19:35:00.083Z,99403
2019-05-17T19:40:00.108Z,99399
2019-05-17T19:45:00.079Z,99395
2019-05-17T19:50:00.116Z,99398
2019-05-17T19:55:00.120Z,99415
2019-05-17T20:00:00.080Z,99412
2019-05-17T20:05:00.168Z,99403
2019-05-17T20:10:00.088Z,99411
2019-05-17T20:15:15.902Z,99410
2019-05-17T20:20:00.077Z,99403
2019-05-17T20:25:00.105Z,99397
2019-05-17T20:30:00.100Z,99400
2019-05-17T20:35:00.099Z,99399
2019-05-17T20:40:00.106Z,99400
2019-05-17T20:45:00.112Z,99399
2019-05-17T20:50:00.114Z,99395
2019-05-17T20:55:00.102Z,99396
2019-05-17T21:00:00.111Z,99391
2019-05-17T21:05:00.101Z,99383
2019-05-17T21:10:00.115Z,99386
2019-05-17T21:15:00.105Z,99387
2019-05-17T21:20:00.125Z,99390
2019-05-17T21:25:00.118Z,99394
2019-05-17T21:30:00.095Z,99393
2019-05-17T21:35:00.133Z,99397
2019-05-17T21:40:00.109Z,99394
2019-05-17T21:45:00.123Z,99395
2019-05-17T21:50:00.105Z,99398
2019-05-17T21:55:00.110Z,99386
2019-05-17T22:00:00.121Z,99386
2019-05-17T22:05:00.103Z,99383
2019-05-17T22:10:00.127Z,99389
2019-05-17T22:15:00.131Z,99386
2019-05-17T22:20:00.105Z,99382
2019-05-17T22:25:00.077Z,99383
2019-05-17T22:30:00.119Z,99376
2019-05-17T22:35:00.119Z,99380
2019-05-17T22:40:00.105Z,99378
2019-05-17T22:45:00.117Z,99371
2019-05-17T22:50:00.107Z,99370
2019-05-17T22:55:00.081Z,99369
2019-05-17T23:00:00.079Z,99362
2019-05-17T23:05:00.114Z,99374
2019-05-17T23:10:00.135Z,99361
2019-05-17T23:15:00.087Z,99361
2019-05-17T23:20:00.108Z,99354
2019-05-17T23:25:00.112Z,99359
2019-05-17T23:30:00.130Z,99369
2019-05-17T23:35:00.107Z,99353
2019-05-17T23:40:00.106Z,99350
2019-05-17T23:45:00.108Z,99349
2019-05-17T23:50:00.179Z,99355
2019-05-17T23:55:00.126Z,99349
